»·PEaware :: UPS10 KSLC-KGJT

UPS10 :: KSLC-KGJT

FLIGHT INFORMATION

Flight Status: Arrived
Operator:
United Parcel Service
More flights by this operator :: More flights under this callsign
Pilot: Anonymous 16446 (16446)
Aircraft: BOEING 727-200
(B722)
More flights by this aircraft type
Origin: KSLC Salt Lake City Intl
United States
Destination: KGJT Walker
United States
More flights between these airports :: More routes between these airports
Route: +TCH MTU LOMMA
File this flight plan on PilotEdge
Remarks:
Altitude:
(Current/Filed)
24,000ft
Speed:
(Current/Filed)
450kts
Departed: 05-Dec-17 10:17 PM
Arrived: 05-Dec-17 10:56 PM
Distance/Time
Traveled:
187nm/0:39
Distance/Time
To Go:
Arrived

Flight Plot

Page will automatically refresh every two minutes.

Flight plan parsing failed; only flown route is shown


Map Options




Map Legend


Flown Route
Filed Route
Departure Airport
Arrival Airport
Navaid (VOR, NDB)
Fix

Horizontal Profiles

Position Reports

Time Latitude Longitude Heading Altitude Ground
Speed
05-Dec-17 22:12 40.774919 -111.976872 262 4208ft 0kts
05-Dec-17 22:13 40.774919 -111.976872 262 4208ft 0kts
05-Dec-17 22:14 40.774919 -111.976872 262 4208ft 0kts
05-Dec-17 22:15 40.774919 -111.976872 262 4208ft 0kts
05-Dec-17 22:16 40.774919 -111.976873 262 4208ft 0kts
05-Dec-17 22:17 40.774919 -111.976873 262 4208ft 0kts
05-Dec-17 22:18 40.774919 -111.976873 262 4208ft 0kts
05-Dec-17 22:19 40.775898 -111.976125 117 4208ft 0kts
05-Dec-17 22:20 40.774466 -111.974565 98 4208ft 0kts
05-Dec-17 22:21 40.774466 -111.974565 98 4208ft 0kts
05-Dec-17 22:22 40.785780 -111.974465 354 4209ft 145kts
05-Dec-17 22:23 40.848785 -111.981792 353 6355ft 280kts
05-Dec-17 22:24 40.925693 -111.992133 354 10712ft 291kts
05-Dec-17 22:25 40.999741 -111.965792 60 14126ft 307kts
05-Dec-17 22:26 40.987619 -111.861458 121 17041ft 320kts
05-Dec-17 22:27 40.939570 -111.759433 121 19642ft 344kts
05-Dec-17 22:28 40.886626 -111.647684 122 22188ft 366kts
05-Dec-17 22:29 40.831548 -111.531595 121 24648ft 382kts
05-Dec-17 22:30 40.771736 -111.405813 121 25011ft 433kts
05-Dec-17 22:31 40.704120 -111.264385 122 25011ft 483kts
05-Dec-17 22:32 40.629339 -111.108588 122 25007ft 521kts
05-Dec-17 22:33 40.550430 -110.945025 122 25001ft 536kts
05-Dec-17 22:34 40.470047 -110.779434 122 24996ft 538kts
05-Dec-17 22:35 40.390051 -110.615471 122 24997ft 530kts
05-Dec-17 22:36 40.310842 -110.453828 122 24997ft 525kts
05-Dec-17 22:37 40.232829 -110.295308 122 24998ft 520kts
05-Dec-17 22:38 40.155576 -110.136521 122 24999ft 515kts
05-Dec-17 22:39 40.064019 -109.995864 129 24999ft 507kts
05-Dec-17 22:40 39.975873 -109.859489 129 23742ft 490kts
05-Dec-17 22:41 39.888828 -109.726815 131 22844ft 478kts
05-Dec-17 22:42 39.804106 -109.598656 131 21548ft 470kts
05-Dec-17 22:43 39.720173 -109.471400 131 20141ft 460kts
05-Dec-17 22:44 39.638201 -109.347313 131 18605ft 449kts
05-Dec-17 22:45 39.558596 -109.227568 130 16754ft 438kts
05-Dec-17 22:46 39.479990 -109.109834 130 14941ft 427kts
05-Dec-17 22:47 39.410416 -109.005821 131 13548ft 310kts
05-Dec-17 22:48 39.351364 -108.931403 136 12682ft 303kts
05-Dec-17 22:49 39.298902 -108.845619 124 10856ft 296kts
05-Dec-17 22:50 39.256474 -108.766369 125 8744ft 239kts
05-Dec-17 22:51 39.222268 -108.703726 125 7639ft 188kts
05-Dec-17 22:52 39.195053 -108.653865 125 6722ft 166kts
05-Dec-17 22:53 39.168804 -108.605989 124 5878ft 158kts
05-Dec-17 22:54 39.143463 -108.559643 124 5130ft 162kts
05-Dec-17 22:55 39.116507 -108.507056 109 6236ft 194kts
05-Dec-17 22:56 39.168762 -108.488501 334 7937ft 298kts
05-Dec-17 22:57 39.231318 -108.565296 308 8025ft 273kts
05-Dec-17 22:58 39.239672 -108.638598 187 6929ft 261kts
05-Dec-17 22:59 39.180291 -108.612601 129 6255ft 194kts
05-Dec-17 23:00 39.148937 -108.569385 125 5252ft 156kts
05-Dec-17 23:01 39.127699 -108.531098 124 4814ft 28kts
05-Dec-17 23:02 39.126210 -108.530187 208 4814ft 2kts
05-Dec-17 23:03 39.123742 -108.529454 216 4814ft 0kts
05-Dec-17 23:04 39.123742 -108.529454 216 4814ft 0kts

Navigation Log

Ident Type
Flight plan parsing failed, navigation log unavailable